createdAt,value
2017-07-03T00:02:07.672Z,75.17
2017-07-03T00:04:36.271Z,68.83
2017-07-03T00:07:05.179Z,69.87
2017-07-03T00:09:33.787Z,69.60
2017-07-03T00:12:03.127Z,63.53
2017-07-03T00:14:31.979Z,66.80
2017-07-03T00:17:01.323Z,66.37
2017-07-03T00:19:30.072Z,62.63
2017-07-03T00:21:59.455Z,67.20
2017-07-03T00:24:28.059Z,66.80
2017-07-03T00:26:57.368Z,62.27
2017-07-03T00:29:26.671Z,65.73
2017-07-03T00:31:55.248Z,60.13
2017-07-03T00:34:23.447Z,63.70
2017-07-03T00:36:52.088Z,61.63
2017-07-03T00:39:20.243Z,61.77
2017-07-03T00:41:49.155Z,63.27
2017-07-03T00:44:17.781Z,60.47
2017-07-03T00:46:46.448Z,59.40
2017-07-03T00:49:15.804Z,59.00
2017-07-03T00:51:44.538Z,67.13
2017-07-03T00:54:13.738Z,61.37
2017-07-03T00:56:43.285Z,63.83
2017-07-03T00:59:11.952Z,64.10
2017-07-03T01:01:40.663Z,67.27
2017-07-03T01:04:09.314Z,67.00
2017-07-03T01:06:38.796Z,65.97
2017-07-03T01:09:07.500Z,66.60
2017-07-03T01:11:36.843Z,69.60
2017-07-03T01:14:05.590Z,68.87
2017-07-03T01:16:34.835Z,69.70
2017-07-03T01:19:03.383Z,69.40
2017-07-03T01:21:32.863Z,71.93
2017-07-03T01:24:01.488Z,77.60
2017-07-03T01:26:30.240Z,75.83
2017-07-03T01:28:59.231Z,73.20
2017-07-03T01:31:27.731Z,76.70
2017-07-03T01:33:57.324Z,73.80
2017-07-03T01:36:26.035Z,69.77
2017-07-03T01:38:55.516Z,76.03
2017-07-03T01:41:24.515Z,76.37
2017-07-03T01:43:53.236Z,71.30
2017-07-03T01:46:21.808Z,74.20
2017-07-03T01:48:51.002Z,72.87
2017-07-03T01:51:20.419Z,72.07
2017-07-03T01:53:49.947Z,69.00
2017-07-03T01:56:18.087Z,73.33
2017-07-03T01:58:47.403Z,67.07
2017-07-03T02:01:15.615Z,70.80
2017-07-03T02:03:44.595Z,67.80
2017-07-03T02:06:12.915Z,70.40
2017-07-03T02:08:41.531Z,70.17
2017-07-03T02:11:10.927Z,68.53
2017-07-03T02:13:40.623Z,67.50
2017-07-03T02:16:09.381Z,70.17
2017-07-03T02:18:37.960Z,67.37
2017-07-03T02:21:07.057Z,67.33
2017-07-03T02:23:35.599Z,65.97
2017-07-03T02:26:05.102Z,61.13
2017-07-03T02:28:34.848Z,63.50
2017-07-03T02:31:03.395Z,64.10
2017-07-03T02:33:31.479Z,63.87
2017-07-03T02:36:01.080Z,62.67
2017-07-03T02:38:30.375Z,63.03
2017-07-03T02:40:58.505Z,64.90
2017-07-03T02:43:27.530Z,61.50
2017-07-03T02:45:56.102Z,64.20
2017-07-03T02:48:24.760Z,61.97
2017-07-03T02:50:53.611Z,60.53
2017-07-03T02:53:21.779Z,58.73
2017-07-03T02:55:51.215Z,58.27
2017-07-03T02:58:20.219Z,58.37
2017-07-03T03:00:48.771Z,55.20
2017-07-03T03:03:18.315Z,55.00
2017-07-03T03:05:47.167Z,54.37
2017-07-03T03:08:15.455Z,51.20
2017-07-03T03:10:44.751Z,52.27
2017-07-03T03:13:13.082Z,50.67
2017-07-03T03:15:41.851Z,49.43
2017-07-03T03:18:10.463Z,48.37
2017-07-03T03:20:38.703Z,46.97
2017-07-03T03:23:07.447Z,46.60
2017-07-03T03:25:35.947Z,45.90
2017-07-03T03:28:05.639Z,43.70
2017-07-03T03:30:34.483Z,43.37
2017-07-03T03:33:03.049Z,43.60
2017-07-03T03:35:31.379Z,46.20
2017-07-03T03:38:00.084Z,48.90
2017-07-03T03:40:28.584Z,49.80
2017-07-03T03:42:58.316Z,49.53
2017-07-03T03:45:26.779Z,48.23
2017-07-03T03:47:54.895Z,43.80
2017-07-03T03:50:23.783Z,46.23
2017-07-03T03:52:52.328Z,45.03
2017-07-03T03:55:21.871Z,43.60
2017-07-03T03:57:50.607Z,43.73
2017-07-03T04:00:19.215Z,42.10
2017-07-03T04:02:47.343Z,41.40
2017-07-03T04:05:15.992Z,38.70
2017-07-03T04:07:44.699Z,40.77
2017-07-03T04:10:13.454Z,36.80
2017-07-03T04:12:41.703Z,37.77
2017-07-03T04:15:10.455Z,36.23
2017-07-03T04:17:39.307Z,37.30
2017-07-03T04:20:08.722Z,34.97
2017-07-03T04:22:37.399Z,35.67
2017-07-03T04:25:06.703Z,34.07
2017-07-03T04:27:36.387Z,32.53
2017-07-03T04:30:04.484Z,34.97
2017-07-03T04:32:33.783Z,34.10
2017-07-03T04:35:02.071Z,35.90
2017-07-03T04:37:31.507Z,32.43
2017-07-03T04:40:00.271Z,33.60
2017-07-03T04:42:29.164Z,32.00
2017-07-03T04:44:57.887Z,35.90
2017-07-03T04:47:26.419Z,31.50
2017-07-03T04:49:56.152Z,31.40
2017-07-03T04:52:25.011Z,30.67
2017-07-03T04:54:53.567Z,29.40
2017-07-03T04:57:21.873Z,31.47
2017-07-03T04:59:50.797Z,29.40
2017-07-03T05:02:19.499Z,28.67
2017-07-03T05:04:48.159Z,28.30
2017-07-03T05:07:17.739Z,27.97
2017-07-03T05:09:46.736Z,25.90
2017-07-03T05:12:15.023Z,26.30
2017-07-03T05:14:43.620Z,25.17
2017-07-03T05:17:12.958Z,25.52
2017-07-03T05:19:41.710Z,22.90
2017-07-03T05:22:11.051Z,23.95
2017-07-03T05:24:39.204Z,25.42
2017-07-03T05:27:07.882Z,23.00
2017-07-03T05:29:36.040Z,23.55
2017-07-03T05:32:05.352Z,25.20
2017-07-03T05:34:34.791Z,25.50
2017-07-03T05:37:02.968Z,22.50
2017-07-03T05:39:31.511Z,23.90
2017-07-03T05:42:01.203Z,25.63
2017-07-03T05:44:30.047Z,24.75
2017-07-03T05:46:58.858Z,24.48
2017-07-03T05:49:27.708Z,25.73
2017-07-03T05:51:56.283Z,24.12
2017-07-03T05:54:24.415Z,25.90
2017-07-03T05:56:53.164Z,26.73
2017-07-03T05:59:21.732Z,23.92
2017-07-03T06:01:51.030Z,25.33
2017-07-03T06:04:20.452Z,25.40
2017-07-03T06:06:49.223Z,24.15
2017-07-03T06:09:17.306Z,24.12
2017-07-03T06:11:46.909Z,26.33
2017-07-03T06:14:16.207Z,24.00
2017-07-03T06:16:45.502Z,26.13
2017-07-03T06:19:14.299Z,26.73
2017-07-03T06:21:42.898Z,25.27
2017-07-03T06:24:11.606Z,26.30
2017-07-03T06:26:40.344Z,23.20
2017-07-03T06:29:09.051Z,24.43
2017-07-03T06:31:38.453Z,23.95
2017-07-03T06:34:08.184Z,27.33
2017-07-03T06:36:36.987Z,25.80
2017-07-03T06:39:05.539Z,25.33
2017-07-03T06:41:35.079Z,25.40
2017-07-03T06:44:03.682Z,23.80
2017-07-03T06:46:32.320Z,23.40
2017-07-03T06:49:02.082Z,23.25
2017-07-03T06:51:30.773Z,20.92
2017-07-03T06:54:00.303Z,22.42
2017-07-03T06:56:29.294Z,20.75
2017-07-03T06:58:58.187Z,20.98
2017-07-03T07:01:26.691Z,20.55
2017-07-03T07:03:54.938Z,31.08
2017-07-03T07:06:23.795Z,21.35
2017-07-03T07:08:51.995Z,20.77
2017-07-03T07:11:20.206Z,19.92
2017-07-03T07:13:49.719Z,20.60
2017-07-03T07:16:18.968Z,19.67
2017-07-03T07:18:47.810Z,17.67
2017-07-03T07:21:17.047Z,18.10
2017-07-03T07:23:45.903Z,19.83
2017-07-03T07:26:15.324Z,18.47
2017-07-03T07:28:44.896Z,19.17
2017-07-03T07:31:13.787Z,19.30
2017-07-03T07:33:42.471Z,20.83
2017-07-03T07:36:11.080Z,17.90
2017-07-03T07:38:40.422Z,17.73
2017-07-03T07:41:09.271Z,16.33
2017-07-03T07:43:38.579Z,17.50
2017-07-03T07:46:06.708Z,16.10
2017-07-03T07:48:35.722Z,17.83
2017-07-03T07:51:04.287Z,17.47
2017-07-03T07:53:32.912Z,16.00
2017-07-03T07:56:02.336Z,16.57
2017-07-03T07:58:30.948Z,16.97
2017-07-03T08:00:59.103Z,17.10
2017-07-03T08:03:28.126Z,16.57
2017-07-03T08:05:56.795Z,17.17
2017-07-03T08:08:25.451Z,17.43
2017-07-03T08:10:54.968Z,17.63
2017-07-03T08:13:23.647Z,18.37
2017-07-03T08:15:53.006Z,17.07
2017-07-03T08:18:21.923Z,16.43
2017-07-03T08:20:50.632Z,16.00
2017-07-03T08:23:19.979Z,15.70
2017-07-03T08:25:48.759Z,17.17
2017-07-03T08:28:17.507Z,17.47
2017-07-03T08:30:47.020Z,16.93
2017-07-03T08:33:16.430Z,15.40
2017-07-03T08:35:45.143Z,15.50
2017-07-03T08:38:13.533Z,16.60
2017-07-03T08:40:41.746Z,16.20
2017-07-03T08:43:10.451Z,16.17
2017-07-03T08:45:39.750Z,17.03
2017-07-03T08:48:09.480Z,16.57
2017-07-03T08:50:38.184Z,16.30
2017-07-03T08:53:07.093Z,16.23
2017-07-03T08:55:35.838Z,16.10
2017-07-03T08:58:05.414Z,16.50
2017-07-03T09:00:33.975Z,16.00
2017-07-03T09:03:02.223Z,17.17
2017-07-03T09:05:30.355Z,15.47
2017-07-03T09:07:59.110Z,17.33
2017-07-03T09:10:28.055Z,17.30
2017-07-03T09:12:56.250Z,18.70
2017-07-03T09:15:24.919Z,18.67
2017-07-03T09:17:54.711Z,17.03
2017-07-03T09:20:23.659Z,18.40
2017-07-03T09:22:52.551Z,16.70
2017-07-03T09:25:21.324Z,16.50
2017-07-03T09:27:49.936Z,18.47
2017-07-03T09:30:18.063Z,14.60
2017-07-03T09:32:47.679Z,17.80
2017-07-03T09:35:17.126Z,16.17
2017-07-03T09:37:45.771Z,15.60
2017-07-03T09:40:15.114Z,16.33
2017-07-03T09:42:43.964Z,17.00
2017-07-03T09:45:13.427Z,15.67
2017-07-03T09:47:42.201Z,16.80
2017-07-03T09:50:10.843Z,15.80
2017-07-03T09:52:40.243Z,16.00
2017-07-03T09:55:09.937Z,15.37
2017-07-03T09:57:38.489Z,14.30
2017-07-03T10:00:07.228Z,17.97
2017-07-03T10:02:35.518Z,16.47
2017-07-03T10:05:04.091Z,17.33
2017-07-03T10:07:33.730Z,17.27
2017-07-03T10:10:02.727Z,15.90
2017-07-03T10:12:31.536Z,16.17
2017-07-03T10:15:00.371Z,17.60
2017-07-03T10:17:28.615Z,18.50
2017-07-03T10:19:57.523Z,15.20
2017-07-03T10:22:26.027Z,16.70
2017-07-03T10:24:56.392Z,17.60
2017-07-03T10:27:25.059Z,16.57
2017-07-03T10:29:53.763Z,16.83
2017-07-03T10:32:22.600Z,16.90
2017-07-03T10:34:51.207Z,17.57
2017-07-03T10:37:19.291Z,18.10
2017-07-03T10:39:47.939Z,18.57
2017-07-03T10:42:16.551Z,17.43
2017-07-03T10:44:45.847Z,18.73
2017-07-03T10:47:15.501Z,17.90
2017-07-03T10:49:43.620Z,18.63
2017-07-03T10:52:12.344Z,17.70
2017-07-03T10:54:41.000Z,17.13
2017-07-03T10:57:10.530Z,16.57
2017-07-03T10:59:39.836Z,18.03
2017-07-03T11:02:08.712Z,19.70
2017-07-03T11:04:36.835Z,17.77
2017-07-03T11:07:05.448Z,17.97
2017-07-03T11:09:34.355Z,15.57
2017-07-03T11:12:03.679Z,18.20
2017-07-03T11:14:31.802Z,16.53
2017-07-03T11:17:00.407Z,17.07
2017-07-03T11:19:28.987Z,17.20
2017-07-03T11:21:57.903Z,16.90
2017-07-03T11:24:27.332Z,16.17
2017-07-03T11:26:55.981Z,16.43
2017-07-03T11:29:24.648Z,15.57
2017-07-03T11:31:52.948Z,15.50
2017-07-03T11:34:21.624Z,15.17
2017-07-03T11:36:50.302Z,15.07
2017-07-03T11:39:19.248Z,17.17
2017-07-03T11:41:47.723Z,17.13
2017-07-03T11:44:16.575Z,16.60
2017-07-03T11:46:45.396Z,17.70
2017-07-03T11:49:14.667Z,15.60
2017-07-03T11:51:43.447Z,16.47
2017-07-03T11:54:12.296Z,15.73
2017-07-03T11:56:40.823Z,16.13
2017-07-03T11:59:08.918Z,16.93
2017-07-03T12:01:37.603Z,15.00
2017-07-03T12:04:06.224Z,16.60
2017-07-03T12:06:34.966Z,15.53
2017-07-03T12:09:03.987Z,17.87
2017-07-03T12:11:33.266Z,16.93
2017-07-03T12:14:01.940Z,16.40
2017-07-03T12:16:30.183Z,15.37
2017-07-03T12:18:58.271Z,16.10
2017-07-03T12:21:26.771Z,15.57
2017-07-03T12:23:55.716Z,16.43
2017-07-03T12:26:24.367Z,15.80
2017-07-03T12:28:52.995Z,14.50
2017-07-03T12:31:21.607Z,14.90
2017-07-03T12:33:50.224Z,15.13
2017-07-03T12:36:18.848Z,15.90
2017-07-03T12:38:47.344Z,16.07
2017-07-03T12:41:15.879Z,15.80
2017-07-03T12:43:44.565Z,17.47
2017-07-03T12:46:13.439Z,15.97
2017-07-03T12:48:42.335Z,14.20
2017-07-03T12:51:10.476Z,15.97
2017-07-03T12:53:39.450Z,15.20
2017-07-03T12:56:08.019Z,15.50
2017-07-03T12:58:37.294Z,14.40
2017-07-03T13:01:06.211Z,15.33
2017-07-03T13:03:35.595Z,13.97
2017-07-03T13:06:04.199Z,15.00
2017-07-03T13:08:33.787Z,15.93
2017-07-03T13:11:02.395Z,16.67
2017-07-03T13:13:30.572Z,14.50
2017-07-03T13:16:00.143Z,14.83
2017-07-03T13:18:28.632Z,14.53
2017-07-03T13:20:57.224Z,14.67
2017-07-03T13:23:26.035Z,15.50
2017-07-03T13:25:55.451Z,15.00
2017-07-03T13:28:24.707Z,16.03
2017-07-03T13:30:53.455Z,15.37
2017-07-03T13:33:22.204Z,14.90
2017-07-03T13:35:50.871Z,15.87
2017-07-03T13:38:19.523Z,15.70
2017-07-03T13:40:48.159Z,15.90
2017-07-03T13:43:16.854Z,14.80
2017-07-03T13:45:45.723Z,17.40
2017-07-03T13:48:14.390Z,14.97
2017-07-03T13:50:42.839Z,14.00
2017-07-03T13:53:11.599Z,13.70
2017-07-03T13:55:40.403Z,15.50
2017-07-03T13:58:09.832Z,16.40
2017-07-03T14:00:38.687Z,15.60
2017-07-03T14:03:07.358Z,15.83
2017-07-03T14:05:36.309Z,16.87
2017-07-03T14:08:04.951Z,15.20
2017-07-03T14:10:33.634Z,16.23
2017-07-03T14:13:01.727Z,17.00
2017-07-03T14:15:31.435Z,16.20
2017-07-03T14:18:00.959Z,18.40
2017-07-03T14:20:29.615Z,16.67
2017-07-03T14:22:58.323Z,16.30
2017-07-03T14:25:27.813Z,16.33
2017-07-03T14:27:57.207Z,16.37
2017-07-03T14:30:26.076Z,17.23
2017-07-03T14:32:54.687Z,15.10
2017-07-03T14:35:23.396Z,15.93
2017-07-03T14:37:53.024Z,16.37
2017-07-03T14:40:21.775Z,17.70
2017-07-03T14:42:50.448Z,16.80
2017-07-03T14:45:19.342Z,16.67
2017-07-03T14:47:47.875Z,16.20
2017-07-03T14:50:16.564Z,16.10
2017-07-03T14:52:45.516Z,17.40
2017-07-03T14:55:14.186Z,17.53
2017-07-03T14:57:42.958Z,16.50
2017-07-03T15:00:11.577Z,19.43
2017-07-03T15:02:40.268Z,17.90
2017-07-03T15:05:09.075Z,16.43
2017-07-03T15:07:38.557Z,18.77
2017-07-03T15:10:06.651Z,17.90
2017-07-03T15:12:36.247Z,16.90
2017-07-03T15:15:05.155Z,17.07
2017-07-03T15:17:33.291Z,18.10
2017-07-03T15:20:02.033Z,16.90
2017-07-03T15:22:30.995Z,17.30
2017-07-03T15:24:59.780Z,16.43
2017-07-03T15:27:28.513Z,17.87
2017-07-03T15:29:57.344Z,15.47
2017-07-03T15:32:25.948Z,16.83
2017-07-03T15:34:54.637Z,17.00
2017-07-03T15:37:23.648Z,17.50
2017-07-03T15:39:53.132Z,17.20
2017-07-03T15:42:21.735Z,18.07
2017-07-03T15:44:51.190Z,16.27
2017-07-03T15:47:19.920Z,17.80
2017-07-03T15:49:48.584Z,16.80
2017-07-03T15:52:17.259Z,15.83
2017-07-03T15:54:45.811Z,15.73
2017-07-03T15:57:14.542Z,17.30
2017-07-03T15:59:43.439Z,16.27
2017-07-03T16:02:11.984Z,16.30
2017-07-03T16:04:40.625Z,18.70
2017-07-03T16:07:09.407Z,15.20
2017-07-03T16:09:38.183Z,16.33
2017-07-03T16:12:06.954Z,15.83
2017-07-03T16:14:35.582Z,17.10
2017-07-03T16:17:03.719Z,15.90
2017-07-03T16:19:31.767Z,16.60
2017-07-03T16:22:00.611Z,17.03
2017-07-03T16:24:29.320Z,16.27
2017-07-03T16:26:58.804Z,17.30
2017-07-03T16:29:27.620Z,16.00
2017-07-03T16:31:57.044Z,17.10
2017-07-03T16:34:25.912Z,18.37
2017-07-03T16:36:55.331Z,17.10
2017-07-03T16:39:23.983Z,17.77
2017-07-03T16:41:52.716Z,16.63
2017-07-03T16:44:21.527Z,17.43
2017-07-03T16:46:49.975Z,16.77
2017-07-03T16:49:18.527Z,18.93
2017-07-03T16:51:47.543Z,17.00
2017-07-03T16:54:16.923Z,16.67
2017-07-03T16:56:45.611Z,17.90
2017-07-03T16:59:14.496Z,16.77
2017-07-03T17:01:43.160Z,18.23
2017-07-03T17:04:11.712Z,17.00
2017-07-03T17:06:40.604Z,17.07
2017-07-03T17:09:09.253Z,17.37
2017-07-03T17:11:38.027Z,16.53
2017-07-03T17:14:07.159Z,18.03
2017-07-03T17:16:36.543Z,17.57
2017-07-03T17:19:05.115Z,16.93
2017-07-03T17:21:33.728Z,20.03
2017-07-03T17:24:03.207Z,17.50
2017-07-03T17:26:31.692Z,17.87
2017-07-03T17:29:00.531Z,17.90
2017-07-03T17:31:28.636Z,17.57
2017-07-03T17:33:57.347Z,17.63
2017-07-03T17:36:26.142Z,17.37
2017-07-03T17:38:54.832Z,18.50
2017-07-03T17:41:23.743Z,18.37
2017-07-03T17:43:53.195Z,20.10
2017-07-03T17:46:21.915Z,19.03
2017-07-03T17:48:50.523Z,18.27
2017-07-03T17:51:20.112Z,18.43
2017-07-03T17:53:48.924Z,19.10
2017-07-03T17:56:18.404Z,19.73
2017-07-03T17:58:47.300Z,19.77
2017-07-03T18:01:15.986Z,21.10
2017-07-03T18:03:44.760Z,20.47
2017-07-03T18:06:13.612Z,20.70
2017-07-03T18:08:42.422Z,21.27
2017-07-03T18:11:11.031Z,18.97
2017-07-03T18:13:39.935Z,20.70
2017-07-03T18:16:08.539Z,21.37
2017-07-03T18:18:37.867Z,19.63
2017-07-03T18:21:06.711Z,21.30
2017-07-03T18:23:35.447Z,20.53
2017-07-03T18:26:03.763Z,18.23
2017-07-03T18:28:32.467Z,20.10
2017-07-03T18:31:01.178Z,21.27
2017-07-03T18:33:30.559Z,19.10
2017-07-03T18:35:58.919Z,21.40
2017-07-03T18:38:27.411Z,21.40
2017-07-03T18:40:56.005Z,23.30
2017-07-03T18:43:24.715Z,21.00
2017-07-03T18:45:54.131Z,21.97
2017-07-03T18:48:22.708Z,24.10
2017-07-03T18:50:52.259Z,23.60
2017-07-03T18:53:21.088Z,24.63
2017-07-03T18:55:49.788Z,23.13
2017-07-03T18:58:19.271Z,24.00
2017-07-03T19:00:47.983Z,24.20
2017-07-03T19:03:17.468Z,23.77
2017-07-03T19:05:46.359Z,24.00
2017-07-03T19:08:15.271Z,22.23
2017-07-03T19:10:44.552Z,22.27
2017-07-03T19:13:13.451Z,21.97
2017-07-03T19:15:42.156Z,23.50
2017-07-03T19:18:10.215Z,23.60
2017-07-03T19:20:38.999Z,25.13
2017-07-03T19:23:07.775Z,26.07
2017-07-03T19:25:36.438Z,26.80
2017-07-03T19:28:05.140Z,27.23
2017-07-03T19:30:33.889Z,27.57
2017-07-03T19:33:02.639Z,26.20
2017-07-03T19:35:31.735Z,27.30
2017-07-03T19:38:00.731Z,26.60
2017-07-03T19:40:29.335Z,29.03
2017-07-03T19:42:57.517Z,29.60
2017-07-03T19:45:25.615Z,28.30
2017-07-03T19:47:53.743Z,30.23
2017-07-03T19:50:22.743Z,27.70
2017-07-03T19:52:52.024Z,32.57
2017-07-03T19:55:20.124Z,31.43
2017-07-03T19:57:49.552Z,33.07
2017-07-03T20:00:18.319Z,31.07
2017-07-03T20:02:47.703Z,29.60
2017-07-03T20:05:16.415Z,30.63
2017-07-03T20:07:45.798Z,30.97
2017-07-03T20:10:14.603Z,29.73
2017-07-03T20:12:42.851Z,29.17
2017-07-03T20:15:11.451Z,31.87
2017-07-03T20:17:40.051Z,32.70
2017-07-03T20:20:09.471Z,32.73
2017-07-03T20:22:38.149Z,32.87
2017-07-03T20:25:07.672Z,34.33
2017-07-03T20:27:36.524Z,33.30
2017-07-03T20:30:05.231Z,32.87
2017-07-03T20:32:33.405Z,33.43
2017-07-03T20:35:02.831Z,30.60
2017-07-03T20:37:30.928Z,33.40
2017-07-03T20:39:59.760Z,31.50
2017-07-03T20:42:28.012Z,35.00
2017-07-03T20:44:56.179Z,31.43
2017-07-03T20:47:24.983Z,33.70
2017-07-03T20:49:53.875Z,32.87
2017-07-03T20:52:22.723Z,33.50
2017-07-03T20:54:51.642Z,33.20
2017-07-03T20:57:20.464Z,34.77
2017-07-03T20:59:49.107Z,35.10
2017-07-03T21:02:17.856Z,36.57
2017-07-03T21:04:47.339Z,36.90
2017-07-03T21:07:16.051Z,35.23
2017-07-03T21:09:45.454Z,34.50
2017-07-03T21:12:15.143Z,34.83
2017-07-03T21:14:43.905Z,34.33
2017-07-03T21:17:12.542Z,33.90
2017-07-03T21:19:42.129Z,31.50
2017-07-03T21:22:10.423Z,32.10
2017-07-03T21:24:39.968Z,32.10
2017-07-03T21:27:08.640Z,32.67
2017-07-03T21:29:37.351Z,32.00
2017-07-03T21:32:06.010Z,29.90
2017-07-03T21:34:34.903Z,30.17
2017-07-03T21:37:03.072Z,30.77
2017-07-03T21:39:31.651Z,32.93
2017-07-03T21:42:01.271Z,31.77
2017-07-03T21:44:29.840Z,32.37
2017-07-03T21:46:59.084Z,31.10
2017-07-03T21:49:28.034Z,31.03
2017-07-03T21:51:57.392Z,31.37
2017-07-03T21:54:25.596Z,33.00
2017-07-03T21:56:54.629Z,32.87
2017-07-03T21:59:22.795Z,31.50
2017-07-03T22:01:52.324Z,32.43
2017-07-03T22:04:21.052Z,29.80
2017-07-03T22:06:49.663Z,30.13
2017-07-03T22:09:18.904Z,32.80
2017-07-03T22:11:47.859Z,32.20
2017-07-03T22:14:15.970Z,31.17
2017-07-03T22:16:44.719Z,30.53
2017-07-03T22:19:14.551Z,32.33
2017-07-03T22:21:43.404Z,28.83
2017-07-03T22:24:11.494Z,28.70
2017-07-03T22:26:40.919Z,29.33
2017-07-03T22:29:09.488Z,29.80
2017-07-03T22:31:38.786Z,31.47
2017-07-03T22:34:08.723Z,29.87
2017-07-03T22:36:37.477Z,29.50
2017-07-03T22:39:05.568Z,28.83
2017-07-03T22:41:34.104Z,29.87
2017-07-03T22:44:02.463Z,27.80
2017-07-03T22:46:31.156Z,30.30
2017-07-03T22:49:00.007Z,30.67
2017-07-03T22:51:29.251Z,29.10
2017-07-03T22:53:57.918Z,27.67
2017-07-03T22:56:26.915Z,28.70
2017-07-03T22:58:55.768Z,27.80
2017-07-03T23:01:24.503Z,27.90
2017-07-03T23:03:53.067Z,27.87
2017-07-03T23:06:21.742Z,28.67
2017-07-03T23:08:50.939Z,26.30
2017-07-03T23:11:20.735Z,28.93
2017-07-03T23:13:49.240Z,25.93
2017-07-03T23:16:18.777Z,26.27
2017-07-03T23:18:47.417Z,26.90
2017-07-03T23:21:15.574Z,26.40
2017-07-03T23:23:43.784Z,26.97
2017-07-03T23:26:13.471Z,26.87
2017-07-03T23:28:42.076Z,26.67
2017-07-03T23:31:11.438Z,24.80
2017-07-03T23:33:40.181Z,26.03
2017-07-03T23:36:08.755Z,26.80
2017-07-03T23:38:38.647Z,27.03
2017-07-03T23:41:07.168Z,27.27
2017-07-03T23:56:34.548Z,24.67
2017-07-03T23:59:03.191Z,26.13
